sensor_id;sensor_type;location;lat;lon;timestamp;noise_LAeq;noise_LA_min;noise_LA_max;noise_LA01;noise_LA95
56099;Laerm;44276;49.534;6.378;2023-02-27T00:00:33;43.03;36.20;56.10;;
56099;Laerm;44276;49.534;6.378;2023-02-27T00:03:01;39.76;36.69;43.99;;
56099;Laerm;44276;49.534;6.378;2023-02-27T00:05:31;39.90;37.12;43.89;;
56099;Laerm;44276;49.534;6.378;2023-02-27T00:07:59;39.90;37.12;47.93;;
56099;Laerm;44276;49.534;6.378;2023-02-27T00:10:27;40.07;36.45;46.28;;
56099;Laerm;44276;49.534;6.378;2023-02-27T00:12:55;42.23;37.12;47.86;;
56099;Laerm;44276;49.534;6.378;2023-02-27T00:15:23;41.65;36.69;48.87;;
56099;Laerm;44276;49.534;6.378;2023-02-27T00:17:52;41.44;37.12;50.35;;
56099;Laerm;44276;49.534;6.378;2023-02-27T00:20:23;39.65;36.45;42.41;;
56099;Laerm;44276;49.534;6.378;2023-02-27T00:22:53;39.93;36.69;44.39;;
56099;Laerm;44276;49.534;6.378;2023-02-27T00:25:24;41.42;36.91;55.73;;
56099;Laerm;44276;49.534;6.378;2023-02-27T00:27:52;41.38;36.69;51.79;;
56099;Laerm;44276;49.534;6.378;2023-02-27T00:30:22;39.94;37.12;47.12;;
56099;Laerm;44276;49.534;6.378;2023-02-27T00:32:52;39.83;36.45;43.77;;
56099;Laerm;44276;49.534;6.378;2023-02-27T00:35:22;39.94;37.12;46.25;;
56099;Laerm;44276;49.534;6.378;2023-02-27T00:37:51;40.57;37.12;49.03;;
56099;Laerm;44276;49.534;6.378;2023-02-27T00:40:20;39.72;36.45;43.29;;
56099;Laerm;44276;49.534;6.378;2023-02-27T00:42:51;39.98;36.91;44.07;;
56099;Laerm;44276;49.534;6.378;2023-02-27T00:45:19;39.82;36.91;44.65;;
56099;Laerm;44276;49.534;6.378;2023-02-27T00:47:48;40.80;37.12;52.61;;
56099;Laerm;44276;49.534;6.378;2023-02-27T00:50:16;40.12;36.69;48.43;;
56099;Laerm;44276;49.534;6.378;2023-02-27T00:52:45;40.79;36.91;51.85;;
56099;Laerm;44276;49.534;6.378;2023-02-27T00:55:13;40.27;36.91;55.43;;
56099;Laerm;44276;49.534;6.378;2023-02-27T00:57:43;39.91;36.20;43.81;;
56099;Laerm;44276;49.534;6.378;2023-02-27T01:00:12;41.27;36.91;52.05;;
56099;Laerm;44276;49.534;6.378;2023-02-27T01:02:41;39.82;36.45;48.08;;
56099;Laerm;44276;49.534;6.378;2023-02-27T01:05:09;43.25;37.32;56.54;;
56099;Laerm;44276;49.534;6.378;2023-02-27T01:07:38;40.57;36.20;48.13;;
56099;Laerm;44276;49.534;6.378;2023-02-27T01:10:08;39.76;36.69;43.09;;
56099;Laerm;44276;49.534;6.378;2023-02-27T01:12:38;40.18;37.12;47.00;;
56099;Laerm;44276;49.534;6.378;2023-02-27T01:15:10;39.93;36.69;45.23;;
56099;Laerm;44276;49.534;6.378;2023-02-27T01:17:38;40.01;36.91;43.94;;
56099;Laerm;44276;49.534;6.378;2023-02-27T01:20:10;39.90;36.20;43.54;;
56099;Laerm;44276;49.534;6.378;2023-02-27T01:22:39;40.03;36.45;47.98;;
56099;Laerm;44276;49.534;6.378;2023-02-27T01:25:09;40.19;36.69;45.20;;
56099;Laerm;44276;49.534;6.378;2023-02-27T01:27:37;39.95;36.91;45.36;;
56099;Laerm;44276;49.534;6.378;2023-02-27T01:30:08;41.38;36.20;49.66;;
56099;Laerm;44276;49.534;6.378;2023-02-27T01:32:38;39.82;35.94;47.68;;
56099;Laerm;44276;49.534;6.378;2023-02-27T01:35:07;39.67;36.69;43.49;;
56099;Laerm;44276;49.534;6.378;2023-02-27T01:37:35;39.86;36.69;44.19;;
56099;Laerm;44276;49.534;6.378;2023-02-27T01:40:06;40.35;36.20;49.55;;
56099;Laerm;44276;49.534;6.378;2023-02-27T01:42:35;40.32;36.91;48.61;;
56099;Laerm;44276;49.534;6.378;2023-02-27T01:45:27;40.21;36.69;50.00;;
56099;Laerm;44276;49.534;6.378;2023-02-27T01:48:04;40.60;36.91;49.60;;
56099;Laerm;44276;49.534;6.378;2023-02-27T01:50:35;40.45;37.17;47.48;;
56099;Laerm;44276;49.534;6.378;2023-02-27T01:53:05;40.30;36.91;52.27;;
56099;Laerm;44276;49.534;6.378;2023-02-27T01:55:37;40.33;36.91;49.07;;
56099;Laerm;44276;49.534;6.378;2023-02-27T01:58:10;40.34;36.45;49.51;;
56099;Laerm;44276;49.534;6.378;2023-02-27T02:00:41;40.66;37.12;45.69;;
56099;Laerm;44276;49.534;6.378;2023-02-27T02:03:26;40.83;36.69;51.46;;
56099;Laerm;44276;49.534;6.378;2023-02-27T02:06:00;40.86;36.91;50.72;;
56099;Laerm;44276;49.534;6.378;2023-02-27T02:08:34;40.20;36.69;45.43;;
56099;Laerm;44276;49.534;6.378;2023-02-27T02:11:05;40.46;37.12;48.61;;
56099;Laerm;44276;49.534;6.378;2023-02-27T02:13:37;40.21;37.12;46.15;;
56099;Laerm;44276;49.534;6.378;2023-02-27T02:16:27;40.21;36.69;49.90;;
56099;Laerm;44276;49.534;6.378;2023-02-27T02:29:15;40.12;36.69;49.78;;
56099;Laerm;44276;49.534;6.378;2023-02-27T02:32:21;40.25;36.20;46.15;;
56099;Laerm;44276;49.534;6.378;2023-02-27T02:35:51;40.49;36.91;50.33;;
56099;Laerm;44276;49.534;6.378;2023-02-27T02:39:09;40.55;35.04;52.01;;
56099;Laerm;44276;49.534;6.378;2023-02-27T02:41:56;40.29;36.69;49.85;;
56099;Laerm;44276;49.534;6.378;2023-02-27T02:44:39;40.86;36.91;53.10;;
56099;Laerm;44276;49.534;6.378;2023-02-27T02:47:21;41.10;36.69;56.54;;
56099;Laerm;44276;49.534;6.378;2023-02-27T02:49:56;40.41;37.12;51.47;;
56099;Laerm;44276;49.534;6.378;2023-02-27T02:52:38;40.47;36.20;53.30;;
56099;Laerm;44276;49.534;6.378;2023-02-27T02:55:15;40.19;36.45;44.76;;
56099;Laerm;44276;49.534;6.378;2023-02-27T02:57:55;40.29;36.91;49.23;;
56099;Laerm;44276;49.534;6.378;2023-02-27T03:00:31;40.31;36.69;46.05;;
56099;Laerm;44276;49.534;6.378;2023-02-27T03:03:07;41.56;37.52;55.27;;
56099;Laerm;44276;49.534;6.378;2023-02-27T03:05:45;41.33;36.91;51.49;;
56099;Laerm;44276;49.534;6.378;2023-02-27T03:08:20;40.46;36.20;47.55;;
56099;Laerm;44276;49.534;6.378;2023-02-27T03:10:55;40.50;36.45;50.77;;
56099;Laerm;44276;49.534;6.378;2023-02-27T03:13:31;41.14;35.94;53.86;;
56099;Laerm;44276;49.534;6.378;2023-02-27T03:16:06;40.90;36.45;54.02;;
56099;Laerm;44276;49.534;6.378;2023-02-27T03:18:43;40.89;37.12;52.65;;
56099;Laerm;44276;49.534;6.378;2023-02-27T03:21:21;41.53;36.91;57.60;;
56099;Laerm;44276;49.534;6.378;2023-02-27T03:23:55;41.63;37.12;50.53;;
56099;Laerm;44276;49.534;6.378;2023-02-27T03:26:33;41.74;37.12;52.72;;
56099;Laerm;44276;49.534;6.378;2023-02-27T03:29:07;42.08;36.69;53.12;;
56099;Laerm;44276;49.534;6.378;2023-02-27T03:31:41;42.06;36.69;56.34;;
56099;Laerm;44276;49.534;6.378;2023-02-27T03:34:18;41.95;37.32;52.36;;
56099;Laerm;44276;49.534;6.378;2023-02-27T03:36:59;42.03;37.32;58.85;;
56099;Laerm;44276;49.534;6.378;2023-02-27T03:39:39;41.25;36.91;54.76;;
56099;Laerm;44276;49.534;6.378;2023-02-27T03:42:24;41.52;36.91;55.20;;
56099;Laerm;44276;49.534;6.378;2023-02-27T03:45:03;40.71;37.32;47.61;;
56099;Laerm;44276;49.534;6.378;2023-02-27T03:47:33;41.54;37.12;50.92;;
56099;Laerm;44276;49.534;6.378;2023-02-27T03:50:02;41.61;36.45;53.20;;
56099;Laerm;44276;49.534;6.378;2023-02-27T03:52:31;41.37;37.52;54.43;;
56099;Laerm;44276;49.534;6.378;2023-02-27T03:55:07;41.93;37.32;56.10;;
56099;Laerm;44276;49.534;6.378;2023-02-27T03:57:40;40.79;37.32;48.63;;
56099;Laerm;44276;49.534;6.378;2023-02-27T04:00:16;41.21;37.52;48.55;;
56099;Laerm;44276;49.534;6.378;2023-02-27T04:02:48;40.90;37.32;46.23;;
56099;Laerm;44276;49.534;6.378;2023-02-27T04:05:17;42.59;37.12;53.00;;
56099;Laerm;44276;49.534;6.378;2023-02-27T04:08:02;40.84;36.91;48.43;;
56099;Laerm;44276;49.534;6.378;2023-02-27T04:10:53;41.86;36.91;49.38;;
56099;Laerm;44276;49.534;6.378;2023-02-27T04:13:57;41.17;37.32;47.74;;
56099;Laerm;44276;49.534;6.378;2023-02-27T04:16:59;42.15;37.70;50.30;;
56099;Laerm;44276;49.534;6.378;2023-02-27T04:19:50;40.71;36.20;46.07;;
56099;Laerm;44276;49.534;6.378;2023-02-27T04:22:33;42.04;37.12;49.58;;
56099;Laerm;44276;49.534;6.378;2023-02-27T04:25:26;44.38;38.02;56.67;;
56099;Laerm;44276;49.534;6.378;2023-02-27T04:28:08;43.21;37.32;54.19;;
56099;Laerm;44276;49.534;6.378;2023-02-27T04:30:54;41.81;36.69;50.89;;
56099;Laerm;44276;49.534;6.378;2023-02-27T04:33:38;41.58;37.32;49.00;;
56099;Laerm;44276;49.534;6.378;2023-02-27T04:36:16;42.33;36.69;49.93;;
56099;Laerm;44276;49.534;6.378;2023-02-27T04:38:48;41.55;37.32;47.50;;
56099;Laerm;44276;49.534;6.378;2023-02-27T04:41:23;42.70;38.52;49.79;;
56099;Laerm;44276;49.534;6.378;2023-02-27T04:43:56;42.26;37.88;49.49;;
56099;Laerm;44276;49.534;6.378;2023-02-27T04:46:30;42.37;37.70;50.41;;
56099;Laerm;44276;49.534;6.378;2023-02-27T04:49:04;43.67;38.05;54.48;;
56099;Laerm;44276;49.534;6.378;2023-02-27T04:51:43;43.93;38.05;53.59;;
56099;Laerm;44276;49.534;6.378;2023-02-27T04:54:20;42.67;37.88;52.32;;
56099;Laerm;44276;49.534;6.378;2023-02-27T04:56:52;42.32;37.52;51.34;;
56099;Laerm;44276;49.534;6.378;2023-02-27T04:59:27;42.89;37.70;56.88;;
56099;Laerm;44276;49.534;6.378;2023-02-27T05:02:02;42.57;37.88;49.30;;
56099;Laerm;44276;49.534;6.378;2023-02-27T05:04:36;42.72;36.91;50.50;;
56099;Laerm;44276;49.534;6.378;2023-02-27T05:07:11;42.66;38.05;52.33;;
56099;Laerm;44276;49.534;6.378;2023-02-27T05:09:44;43.33;37.70;52.17;;
56099;Laerm;44276;49.534;6.378;2023-02-27T05:12:20;42.45;37.88;46.84;;
56099;Laerm;44276;49.534;6.378;2023-02-27T05:14:56;43.16;38.21;50.18;;
56099;Laerm;44276;49.534;6.378;2023-02-27T05:17:31;44.01;38.52;49.16;;
56099;Laerm;44276;49.534;6.378;2023-02-27T05:20:03;42.81;37.12;51.78;;
56099;Laerm;44276;49.534;6.378;2023-02-27T05:22:41;43.83;38.81;52.38;;
56099;Laerm;44276;49.534;6.378;2023-02-27T05:25:19;44.04;37.70;51.46;;
56099;Laerm;44276;49.534;6.378;2023-02-27T05:27:56;43.67;38.81;49.84;;
56099;Laerm;44276;49.534;6.378;2023-02-27T05:30:34;42.88;36.69;52.72;;
56099;Laerm;44276;49.534;6.378;2023-02-27T05:33:08;44.64;38.21;54.81;;
56099;Laerm;44276;49.534;6.378;2023-02-27T05:35:47;44.44;38.05;53.72;;
56099;Laerm;44276;49.534;6.378;2023-02-27T05:38:26;43.49;38.52;51.87;;
56099;Laerm;44276;49.534;6.378;2023-02-27T05:41:01;44.33;38.52;53.25;;
56099;Laerm;44276;49.534;6.378;2023-02-27T05:43:35;42.66;37.52;48.39;;
56099;Laerm;44276;49.534;6.378;2023-02-27T05:46:13;43.99;37.87;52.83;;
56099;Laerm;44276;49.534;6.378;2023-02-27T05:48:50;41.80;37.52;50.44;;
56099;Laerm;44276;49.534;6.378;2023-02-27T05:51:26;43.41;38.52;50.40;;
56099;Laerm;44276;49.534;6.378;2023-02-27T05:54:02;44.36;37.88;52.66;;
56099;Laerm;44276;49.534;6.378;2023-02-27T05:56:34;43.06;38.05;50.25;;
56099;Laerm;44276;49.534;6.378;2023-02-27T05:59:10;43.88;38.05;53.23;;
56099;Laerm;44276;49.534;6.378;2023-02-27T06:01:43;42.84;37.52;50.13;;
56099;Laerm;44276;49.534;6.378;2023-02-27T06:04:13;43.29;37.70;50.96;;
56099;Laerm;44276;49.534;6.378;2023-02-27T06:06:43;43.16;38.05;50.11;;
56099;Laerm;44276;49.534;6.378;2023-02-27T06:09:12;43.94;39.08;56.30;;
56099;Laerm;44276;49.534;6.378;2023-02-27T06:11:42;44.23;38.21;55.63;;
56099;Laerm;44276;49.534;6.378;2023-02-27T06:14:10;43.21;38.67;52.59;;
56099;Laerm;44276;49.534;6.378;2023-02-27T06:16:39;42.49;38.67;47.65;;
56099;Laerm;44276;49.534;6.378;2023-02-27T06:19:07;43.76;37.88;52.73;;
56099;Laerm;44276;49.534;6.378;2023-02-27T06:21:37;42.81;38.52;48.73;;
56099;Laerm;44276;49.534;6.378;2023-02-27T06:24:05;43.54;38.47;57.86;;
56099;Laerm;44276;49.534;6.378;2023-02-27T06:26:34;44.11;38.81;49.46;;
56099;Laerm;44276;49.534;6.378;2023-02-27T06:29:02;42.94;37.88;53.16;;
56099;Laerm;44276;49.534;6.378;2023-02-27T06:31:31;43.69;38.52;55.33;;
56099;Laerm;44276;49.534;6.378;2023-02-27T06:33:59;43.54;39.34;54.10;;
56099;Laerm;44276;49.534;6.378;2023-02-27T06:36:27;43.57;38.05;51.53;;
56099;Laerm;44276;49.534;6.378;2023-02-27T06:38:57;43.62;38.21;52.35;;
56099;Laerm;44276;49.534;6.378;2023-02-27T06:41:26;43.91;38.52;50.98;;
56099;Laerm;44276;49.534;6.378;2023-02-27T06:43:54;44.05;38.81;52.58;;
56099;Laerm;44276;49.534;6.378;2023-02-27T06:46:23;44.21;38.95;56.99;;
56099;Laerm;44276;49.534;6.378;2023-02-27T06:48:52;44.57;38.37;58.89;;
56099;Laerm;44276;49.534;6.378;2023-02-27T06:51:21;45.89;39.58;65.25;;
56099;Laerm;44276;49.534;6.378;2023-02-27T06:53:49;43.49;37.88;54.59;;
56099;Laerm;44276;49.534;6.378;2023-02-27T06:56:19;43.91;39.21;54.40;;
56099;Laerm;44276;49.534;6.378;2023-02-27T06:58:47;43.42;38.67;55.68;;
56099;Laerm;44276;49.534;6.378;2023-02-27T07:01:16;43.18;38.05;52.70;;
56099;Laerm;44276;49.534;6.378;2023-02-27T07:03:44;42.92;38.37;52.00;;
56099;Laerm;44276;49.534;6.378;2023-02-27T07:06:12;44.50;38.95;59.07;;
56099;Laerm;44276;49.534;6.378;2023-02-27T07:08:41;44.62;38.67;56.11;;
56099;Laerm;44276;49.534;6.378;2023-02-27T07:11:30;43.27;38.67;56.06;;
56099;Laerm;44276;49.534;6.378;2023-02-27T07:13:58;43.92;38.52;61.46;;
56099;Laerm;44276;49.534;6.378;2023-02-27T07:16:26;42.73;38.05;56.45;;
56099;Laerm;44276;49.534;6.378;2023-02-27T07:18:55;44.31;39.34;53.92;;
56099;Laerm;44276;49.534;6.378;2023-02-27T07:21:24;42.99;38.95;52.13;;
56099;Laerm;44276;49.534;6.378;2023-02-27T07:23:53;43.01;38.05;53.84;;
56099;Laerm;44276;49.534;6.378;2023-02-27T07:26:21;44.38;38.32;58.83;;
56099;Laerm;44276;49.534;6.378;2023-02-27T07:28:51;43.78;38.67;51.50;;
56099;Laerm;44276;49.534;6.378;2023-02-27T07:31:19;43.26;38.37;52.39;;
56099;Laerm;44276;49.534;6.378;2023-02-27T07:33:48;43.18;38.52;50.49;;
56099;Laerm;44276;49.534;6.378;2023-02-27T07:36:16;43.28;38.21;49.80;;
56099;Laerm;44276;49.534;6.378;2023-02-27T07:38:44;42.93;38.21;49.90;;
56099;Laerm;44276;49.534;6.378;2023-02-27T07:41:13;43.68;39.08;56.91;;
56099;Laerm;44276;49.534;6.378;2023-02-27T07:43:57;43.97;38.81;56.91;;
56099;Laerm;44276;49.534;6.378;2023-02-27T07:46:25;43.55;38.67;52.59;;
56099;Laerm;44276;49.534;6.378;2023-02-27T07:48:54;43.27;38.52;51.59;;
56099;Laerm;44276;49.534;6.378;2023-02-27T07:51:22;43.96;37.88;62.92;;
56099;Laerm;44276;49.534;6.378;2023-02-27T07:53:51;43.28;38.81;50.01;;
56099;Laerm;44276;49.534;6.378;2023-02-27T07:56:19;44.64;38.52;58.82;;
56099;Laerm;44276;49.534;6.378;2023-02-27T07:58:47;44.58;38.81;62.09;;
56099;Laerm;44276;49.534;6.378;2023-02-27T08:01:17;45.03;39.08;57.57;;
56099;Laerm;44276;49.534;6.378;2023-02-27T08:03:45;43.82;37.88;59.46;;
56099;Laerm;44276;49.534;6.378;2023-02-27T08:06:14;42.97;38.32;54.75;;
56099;Laerm;44276;49.534;6.378;2023-02-27T08:08:42;43.69;38.52;57.03;;
56099;Laerm;44276;49.534;6.378;2023-02-27T08:11:11;45.27;38.67;65.85;;
56099;Laerm;44276;49.534;6.378;2023-02-27T08:13:39;43.43;38.67;49.85;;
56099;Laerm;44276;49.534;6.378;2023-02-27T08:16:27;42.91;38.21;57.01;;
56099;Laerm;44276;49.534;6.378;2023-02-27T08:18:57;43.17;38.81;58.36;;
56099;Laerm;44276;49.534;6.378;2023-02-27T08:21:26;43.95;38.37;55.64;;
56099;Laerm;44276;49.534;6.378;2023-02-27T08:23:54;41.70;37.52;49.84;;
56099;Laerm;44276;49.534;6.378;2023-02-27T08:26:23;42.15;37.52;52.39;;
56099;Laerm;44276;49.534;6.378;2023-02-27T08:28:52;43.52;37.12;58.20;;
56099;Laerm;44276;49.534;6.378;2023-02-27T08:31:20;43.74;38.95;57.13;;
56099;Laerm;44276;49.534;6.378;2023-02-27T08:33:50;44.03;39.08;62.47;;
56099;Laerm;44276;49.534;6.378;2023-02-27T08:36:35;44.07;39.21;61.85;;
56099;Laerm;44276;49.534;6.378;2023-02-27T08:39:04;42.57;38.67;54.46;;
56099;Laerm;44276;49.534;6.378;2023-02-27T08:41:34;44.04;38.21;65.21;;
56099;Laerm;44276;49.534;6.378;2023-02-27T08:44:03;44.89;38.60;61.28;;
56099;Laerm;44276;49.534;6.378;2023-02-27T08:46:31;44.19;38.52;61.24;;
56099;Laerm;44276;49.534;6.378;2023-02-27T08:49:01;43.75;38.37;53.61;;
56099;Laerm;44276;49.534;6.378;2023-02-27T08:51:29;43.28;39.92;52.38;;
56099;Laerm;44276;49.534;6.378;2023-02-27T08:53:57;43.43;39.58;56.96;;
56099;Laerm;44276;49.534;6.378;2023-02-27T08:56:26;43.88;39.08;60.38;;
56099;Laerm;44276;49.534;6.378;2023-02-27T08:58:56;43.38;39.46;60.60;;
56099;Laerm;44276;49.534;6.378;2023-02-27T09:01:24;43.64;39.46;55.23;;
56099;Laerm;44276;49.534;6.378;2023-02-27T09:03:57;42.90;39.21;50.64;;
56099;Laerm;44276;49.534;6.378;2023-02-27T09:06:27;44.28;39.81;64.89;;
56099;Laerm;44276;49.534;6.378;2023-02-27T09:08:56;45.65;39.58;64.99;;
56099;Laerm;44276;49.534;6.378;2023-02-27T09:11:25;44.26;38.05;61.91;;
56099;Laerm;44276;49.534;6.378;2023-02-27T09:13:54;44.00;38.67;56.01;;
56099;Laerm;44276;49.534;6.378;2023-02-27T09:16:23;43.60;37.70;59.67;;
56099;Laerm;44276;49.534;6.378;2023-02-27T09:18:52;43.54;36.91;54.62;;
56099;Laerm;44276;49.534;6.378;2023-02-27T09:21:20;44.42;39.58;57.67;;
56099;Laerm;44276;49.534;6.378;2023-02-27T09:23:51;43.73;39.70;54.94;;
56099;Laerm;44276;49.534;6.378;2023-02-27T09:26:19;43.46;38.95;60.90;;
56099;Laerm;44276;49.534;6.378;2023-02-27T09:29:06;43.65;39.58;55.14;;
56099;Laerm;44276;49.534;6.378;2023-02-27T09:31:34;43.03;39.58;54.78;;
56099;Laerm;44276;49.534;6.378;2023-02-27T09:34:03;44.47;40.33;60.61;;
56099;Laerm;44276;49.534;6.378;2023-02-27T09:36:31;42.95;39.34;51.62;;
56099;Laerm;44276;49.534;6.378;2023-02-27T09:39:01;45.74;39.08;67.95;;
56099;Laerm;44276;49.534;6.378;2023-02-27T09:41:55;43.28;39.21;50.77;;
56099;Laerm;44276;49.534;6.378;2023-02-27T09:44:35;42.94;39.78;55.56;;
56099;Laerm;44276;49.534;6.378;2023-02-27T09:47:15;42.73;39.46;55.55;;
56099;Laerm;44276;49.534;6.378;2023-02-27T09:49:58;43.50;40.03;50.26;;
56099;Laerm;44276;49.534;6.378;2023-02-27T09:52:30;43.71;38.95;60.67;;
56099;Laerm;44276;49.534;6.378;2023-02-27T09:55:03;44.05;39.34;61.00;;
56099;Laerm;44276;49.534;6.378;2023-02-27T09:57:43;43.03;39.08;51.27;;
56099;Laerm;44276;49.534;6.378;2023-02-27T10:00:36;44.48;38.95;61.24;;
56099;Laerm;44276;49.534;6.378;2023-02-27T10:03:24;44.30;39.34;60.57;;
56099;Laerm;44276;49.534;6.378;2023-02-27T10:06:14;42.89;39.34;56.58;;
56099;Laerm;44276;49.534;6.378;2023-02-27T10:08:56;42.60;39.34;47.26;;
56099;Laerm;44276;49.534;6.378;2023-02-27T10:11:40;44.73;39.46;63.31;;
56099;Laerm;44276;49.534;6.378;2023-02-27T10:14:25;42.81;39.08;53.11;;
56099;Laerm;44276;49.534;6.378;2023-02-27T10:16:57;45.61;40.03;59.35;;
56099;Laerm;44276;49.534;6.378;2023-02-27T10:19:30;44.26;39.58;60.23;;
56099;Laerm;44276;49.534;6.378;2023-02-27T10:22:06;44.16;39.58;59.57;;
56099;Laerm;44276;49.534;6.378;2023-02-27T10:24:46;42.96;38.95;51.24;;
56099;Laerm;44276;49.534;6.378;2023-02-27T10:27:20;42.52;39.21;47.77;;
56099;Laerm;44276;49.534;6.378;2023-02-27T10:29:49;44.15;39.08;67.32;;
56099;Laerm;44276;49.534;6.378;2023-02-27T10:32:21;43.60;39.08;57.77;;
56099;Laerm;44276;49.534;6.378;2023-02-27T10:34:57;43.32;39.81;55.70;;
56099;Laerm;44276;49.534;6.378;2023-02-27T10:37:35;43.78;39.70;60.83;;
56099;Laerm;44276;49.534;6.378;2023-02-27T10:40:05;45.13;39.21;60.47;;
56099;Laerm;44276;49.534;6.378;2023-02-27T10:42:37;44.31;38.37;61.24;;
56099;Laerm;44276;49.534;6.378;2023-02-27T10:45:13;42.79;38.52;49.29;;
56099;Laerm;44276;49.534;6.378;2023-02-27T10:47:42;42.58;39.58;54.71;;
56099;Laerm;44276;49.534;6.378;2023-02-27T10:50:25;43.16;39.21;56.00;;
56099;Laerm;44276;49.534;6.378;2023-02-27T10:52:57;43.30;39.81;58.49;;
56099;Laerm;44276;49.534;6.378;2023-02-27T10:55:28;44.63;40.03;61.49;;
56099;Laerm;44276;49.534;6.378;2023-02-27T10:58:02;43.90;39.58;62.59;;
56099;Laerm;44276;49.534;6.378;2023-02-27T11:00:40;44.93;38.05;64.14;;
56099;Laerm;44276;49.534;6.378;2023-02-27T11:03:20;44.01;39.08;54.04;;
56099;Laerm;44276;49.534;6.378;2023-02-27T11:05:54;44.56;39.34;62.73;;
56099;Laerm;44276;49.534;6.378;2023-02-27T11:08:26;46.82;38.37;63.92;;
56099;Laerm;44276;49.534;6.378;2023-02-27T11:10:59;45.14;38.95;61.14;;
56099;Laerm;44276;49.534;6.378;2023-02-27T11:13:32;45.86;38.81;64.31;;
56099;Laerm;44276;49.534;6.378;2023-02-27T11:16:14;44.69;39.08;65.73;;
56099;Laerm;44276;49.534;6.378;2023-02-27T11:18:44;45.91;40.43;65.76;;
56099;Laerm;44276;49.534;6.378;2023-02-27T11:21:22;46.96;38.99;65.50;;
56099;Laerm;44276;49.534;6.378;2023-02-27T11:23:59;46.72;39.81;65.28;;
56099;Laerm;44276;49.534;6.378;2023-02-27T11:26:31;42.60;34.31;53.80;;
56099;Laerm;44276;49.534;6.378;2023-02-27T11:29:12;46.12;37.12;64.39;;
56099;Laerm;44276;49.534;6.378;2023-02-27T11:31:50;46.21;39.70;63.24;;
56099;Laerm;44276;49.534;6.378;2023-02-27T11:34:22;45.01;34.69;61.36;;
56099;Laerm;44276;49.534;6.378;2023-02-27T11:36:55;48.20;33.90;66.47;;
56099;Laerm;44276;49.534;6.378;2023-02-27T11:39:35;45.22;32.35;58.24;;
56099;Laerm;44276;49.534;6.378;2023-02-27T11:42:16;47.11;34.31;59.47;;
56099;Laerm;44276;49.534;6.378;2023-02-27T11:44:54;46.34;35.66;64.01;;
56099;Laerm;44276;49.534;6.378;2023-02-27T11:47:30;46.72;33.90;68.50;;
56099;Laerm;44276;49.534;6.378;2023-02-27T11:50:36;44.94;37.70;64.72;;
56099;Laerm;44276;49.534;6.378;2023-02-27T11:53:26;46.59;36.20;69.48;;
56099;Laerm;44276;49.534;6.378;2023-02-27T11:56:01;45.55;35.66;67.63;;
56099;Laerm;44276;49.534;6.378;2023-02-27T11:58:39;46.17;32.93;62.57;;
56099;Laerm;44276;49.534;6.378;2023-02-27T12:01:22;47.09;35.36;67.79;;
56099;Laerm;44276;49.534;6.378;2023-02-27T12:03:59;47.65;37.12;67.18;;
56099;Laerm;44276;49.534;6.378;2023-02-27T12:06:44;42.71;36.20;59.31;;
56099;Laerm;44276;49.534;6.378;2023-02-27T12:09:37;48.97;36.69;68.67;;
56099;Laerm;44276;49.534;6.378;2023-02-27T12:12:18;48.91;39.21;72.57;;
56099;Laerm;44276;49.534;6.378;2023-02-27T12:14:58;45.14;37.88;63.97;;
56099;Laerm;44276;49.534;6.378;2023-02-27T12:17:37;43.01;38.95;58.18;;
56099;Laerm;44276;49.534;6.378;2023-02-27T12:20:26;45.02;39.08;63.18;;
56099;Laerm;44276;49.534;6.378;2023-02-27T12:22:55;44.99;38.05;65.01;;
56099;Laerm;44276;49.534;6.378;2023-02-27T12:25:36;44.72;38.52;64.08;;
56099;Laerm;44276;49.534;6.378;2023-02-27T12:28:21;43.72;38.37;58.62;;
56099;Laerm;44276;49.534;6.378;2023-02-27T12:31:06;42.97;38.81;59.84;;
56099;Laerm;44276;49.534;6.378;2023-02-27T12:33:45;44.62;38.67;63.81;;
56099;Laerm;44276;49.534;6.378;2023-02-27T12:36:16;45.18;39.34;67.14;;
56099;Laerm;44276;49.534;6.378;2023-02-27T12:38:45;42.75;38.37;53.19;;
56099;Laerm;44276;49.534;6.378;2023-02-27T12:41:40;45.80;37.88;62.76;;
56099;Laerm;44276;49.534;6.378;2023-02-27T12:44:33;44.89;38.37;62.55;;
56099;Laerm;44276;49.534;6.378;2023-02-27T12:47:21;43.58;37.88;58.70;;
56099;Laerm;44276;49.534;6.378;2023-02-27T12:50:00;42.50;38.81;51.75;;
56099;Laerm;44276;49.534;6.378;2023-02-27T12:52:42;44.74;37.32;64.46;;
56099;Laerm;44276;49.534;6.378;2023-02-27T12:55:17;44.41;38.95;62.89;;
56099;Laerm;44276;49.534;6.378;2023-02-27T12:58:19;45.57;39.08;68.31;;
56099;Laerm;44276;49.534;6.378;2023-02-27T13:00:55;43.65;38.67;59.56;;
56099;Laerm;44276;49.534;6.378;2023-02-27T13:03:32;44.79;39.21;63.36;;
56099;Laerm;44276;49.534;6.378;2023-02-27T13:06:17;43.60;37.70;57.52;;
56099;Laerm;44276;49.534;6.378;2023-02-27T13:09:04;43.02;38.81;56.38;;
56099;Laerm;44276;49.534;6.378;2023-02-27T13:11:49;46.29;36.69;65.71;;
56099;Laerm;44276;49.534;6.378;2023-02-27T13:14:39;44.48;38.81;63.17;;
56099;Laerm;44276;49.534;6.378;2023-02-27T13:17:17;45.31;39.08;64.36;;
56099;Laerm;44276;49.534;6.378;2023-02-27T13:19:52;43.68;38.67;58.10;;
56099;Laerm;44276;49.534;6.378;2023-02-27T13:22:32;42.85;38.67;54.68;;
56099;Laerm;44276;49.534;6.378;2023-02-27T13:25:11;43.88;38.05;59.24;;
56099;Laerm;44276;49.534;6.378;2023-02-27T13:27:45;43.34;39.08;59.09;;
56099;Laerm;44276;49.534;6.378;2023-02-27T13:30:23;46.89;39.08;65.06;;
56099;Laerm;44276;49.534;6.378;2023-02-27T13:33:01;46.41;39.21;62.42;;
56099;Laerm;44276;49.534;6.378;2023-02-27T13:35:48;50.85;39.46;74.00;;
56099;Laerm;44276;49.534;6.378;2023-02-27T13:38:42;43.75;38.02;65.87;;
56099;Laerm;44276;49.534;6.378;2023-02-27T13:41:34;47.60;39.08;65.63;;
56099;Laerm;44276;49.534;6.378;2023-02-27T13:44:46;45.73;37.52;66.49;;
56099;Laerm;44276;49.534;6.378;2023-02-27T13:47:46;47.92;39.58;68.90;;
56099;Laerm;44276;49.534;6.378;2023-02-27T13:50:48;45.76;38.52;65.93;;
56099;Laerm;44276;49.534;6.378;2023-02-27T13:53:19;47.11;38.67;66.71;;
56099;Laerm;44276;49.534;6.378;2023-02-27T13:56:14;44.01;39.08;59.44;;
56099;Laerm;44276;49.534;6.378;2023-02-27T13:58:44;46.21;38.67;64.27;;
56099;Laerm;44276;49.534;6.378;2023-02-27T14:01:18;46.88;38.81;71.37;;
56099;Laerm;44276;49.534;6.378;2023-02-27T14:03:57;44.15;39.57;57.22;;
56099;Laerm;44276;49.534;6.378;2023-02-27T14:06:29;47.16;38.99;70.63;;
56099;Laerm;44276;49.534;6.378;2023-02-27T14:08:58;50.35;38.67;71.73;;
56099;Laerm;44276;49.534;6.378;2023-02-27T14:11:53;48.84;38.67;70.96;;
56099;Laerm;44276;49.534;6.378;2023-02-27T14:14:43;46.55;39.81;67.36;;
56099;Laerm;44276;49.534;6.378;2023-02-27T14:17:13;49.65;39.58;71.81;;
56099;Laerm;44276;49.534;6.378;2023-02-27T14:20:03;45.71;38.95;66.48;;
56099;Laerm;44276;49.534;6.378;2023-02-27T14:25:46;45.53;39.46;64.82;;
56099;Laerm;44276;49.534;6.378;2023-02-27T14:28:28;46.25;40.13;64.41;;
56099;Laerm;44276;49.534;6.378;2023-02-27T14:31:00;51.95;39.70;70.76;;
56099;Laerm;44276;49.534;6.378;2023-02-27T14:33:37;51.61;39.21;74.16;;
56099;Laerm;44276;49.534;6.378;2023-02-27T14:36:16;47.65;40.23;67.99;;
56099;Laerm;44276;49.534;6.378;2023-02-27T14:38:46;46.80;39.34;68.94;;
56099;Laerm;44276;49.534;6.378;2023-02-27T14:41:29;45.49;39.34;61.31;;
56099;Laerm;44276;49.534;6.378;2023-02-27T14:44:03;43.98;39.08;60.01;;